Time;durP1;ratioP1;P1;durP2;ratioP2;P2;SDS_P1;SDS_P2;PMS_P1;PMS_P2;Temp;Humidity;BMP_temperature;BMP_pressure;BME280_temperature;BME280_humidity;BME280_pressure;Samples;Min_cycle;Max_cycle;Signal;HPM_P1;HPM_P2
2022/11/02 00:00:24;;;;;;;8.73;3.50;;;;;;;11.64;100.00;97329.88;5084150;28;20247;-60
2022/11/02 00:02:50;;;;;;;5.00;3.43;;;;;;;11.64;100.00;97324.59;5081196;28;20263;-59
2022/11/02 00:05:22;;;;;;;4.83;3.67;;;;;;;11.59;100.00;97332.09;5081829;28;20248;-59
2022/11/02 00:07:49;;;;;;;4.60;3.20;;;;;;;11.53;100.00;97332.63;5098777;28;20228;-61
2022/11/02 00:10:17;;;;;;;6.00;3.20;;;;;;;11.49;100.00;97328.56;5103421;28;20170;-60
2022/11/02 00:12:43;;;;;;;6.97;3.27;;;;;;;11.53;100.00;97337.91;5086561;28;20202;-60
2022/11/02 00:15:11;;;;;;;5.03;3.60;;;;;;;11.48;100.00;97326.88;5093727;28;20220;-60
2022/11/02 00:17:39;;;;;;;6.20;3.40;;;;;;;11.46;100.00;97334.13;5103495;28;20202;-61
2022/11/02 00:20:07;;;;;;;4.13;3.43;;;;;;;11.34;100.00;97324.56;5103729;28;20202;-59
2022/11/02 00:22:34;;;;;;;6.30;3.70;;;;;;;11.33;100.00;97329.03;5084678;28;20615;-60
2022/11/02 00:25:03;;;;;;;8.30;3.80;;;;;;;11.40;100.00;97326.72;5084185;28;20267;-61
2022/11/02 00:27:30;;;;;;;4.67;3.90;;;;;;;11.32;100.00;97326.50;5083130;28;20218;-60
2022/11/02 00:29:56;;;;;;;5.13;3.63;;;;;;;11.25;100.00;97328.00;5082905;28;20234;-60
2022/11/02 00:32:23;;;;;;;6.47;3.77;;;;;;;11.19;100.00;97323.25;5082760;28;20260;-59
2022/11/02 00:34:51;;;;;;;4.17;3.77;;;;;;;11.15;100.00;97321.81;5083383;28;20231;-60
2022/11/02 00:37:18;;;;;;;5.17;3.60;;;;;;;11.13;100.00;97334.31;5083295;28;20237;-60
2022/11/02 00:39:44;;;;;;;4.67;3.50;;;;;;;11.10;100.00;97338.09;5091843;28;20197;-59
2022/11/02 00:42:11;;;;;;;5.10;3.37;;;;;;;11.15;100.00;97333.25;5088775;28;20232;-59
2022/11/02 00:44:38;;;;;;;7.97;4.10;;;;;;;11.16;100.00;97342.84;5088598;28;20289;-59
2022/11/02 00:47:04;;;;;;;8.70;3.87;;;;;;;11.19;100.00;97339.97;5081047;28;20669;-59
2022/11/02 00:49:31;;;;;;;3.80;3.40;;;;;;;11.23;100.00;97340.56;5080962;28;20599;-60
2022/11/02 00:51:59;;;;;;;6.47;3.57;;;;;;;11.31;100.00;97344.22;5082826;28;20687;-61
2022/11/02 00:54:26;;;;;;;4.77;3.90;;;;;;;11.34;100.00;97343.09;5085659;28;21128;-59
2022/11/02 00:56:52;;;;;;;5.43;3.30;;;;;;;11.38;100.00;97342.72;5085829;28;20322;-59
2022/11/02 00:59:19;;;;;;;3.83;3.30;;;;;;;11.38;100.00;97350.66;5085421;28;20278;-60
2022/11/02 01:01:51;;;;;;;7.13;4.10;;;;;;;11.45;100.00;97353.63;5085521;28;20325;-60
2022/11/02 01:04:18;;;;;;;5.73;3.90;;;;;;;11.49;100.00;97347.94;5085342;28;20214;-59
2022/11/02 01:06:46;;;;;;;5.13;3.90;;;;;;;11.53;100.00;97352.97;5085250;28;20315;-60
2022/11/02 01:09:15;;;;;;;4.97;3.40;;;;;;;11.56;100.00;97348.25;5085386;28;20247;-59
2022/11/02 01:11:42;;;;;;;5.70;3.90;;;;;;;11.62;100.00;97353.00;5085116;28;20206;-59
2022/11/02 01:14:09;;;;;;;5.00;3.57;;;;;;;11.66;100.00;97351.78;5085585;28;20210;-60
2022/11/02 01:16:36;;;;;;;6.50;3.90;;;;;;;11.68;100.00;97347.19;5085107;28;20234;-59
2022/11/02 01:19:02;;;;;;;6.03;3.47;;;;;;;11.72;100.00;97353.94;5085197;28;20280;-59
2022/11/02 01:21:29;;;;;;;4.20;3.80;;;;;;;11.76;100.00;97359.81;5085349;28;20274;-60
2022/11/02 01:23:56;;;;;;;5.97;3.77;;;;;;;11.80;100.00;97356.75;5085165;28;20281;-60
2022/11/02 01:26:24;;;;;;;4.00;3.57;;;;;;;11.86;100.00;97355.41;5084810;28;20219;-59
2022/11/02 01:28:53;;;;;;;4.70;3.63;;;;;;;11.87;100.00;97357.06;5087466;28;20255;-60
2022/11/02 01:31:20;;;;;;;6.20;4.07;;;;;;;11.86;100.00;97355.41;5105353;28;20203;-60
2022/11/02 01:33:47;;;;;;;7.50;3.90;;;;;;;11.89;100.00;97358.63;5106589;28;20217;-60
2022/11/02 01:36:14;;;;;;;7.23;3.87;;;;;;;11.94;100.00;97353.72;5107169;28;20206;-59
2022/11/02 01:38:41;;;;;;;4.63;4.07;;;;;;;11.92;100.00;97346.91;5106328;28;20686;-59
2022/11/02 01:41:08;;;;;;;6.93;4.00;;;;;;;11.94;100.00;97343.13;5106204;28;20200;-60
2022/11/02 01:43:37;;;;;;;6.97;3.70;;;;;;;11.97;100.00;97350.81;5106053;28;20207;-60
2022/11/02 01:46:07;;;;;;;4.97;3.43;;;;;;;12.01;100.00;97355.88;5107751;28;20222;-60
2022/11/02 01:48:35;;;;;;;6.93;4.30;;;;;;;12.02;100.00;97354.88;5103723;28;20206;-59
2022/11/02 01:51:06;;;;;;;3.90;3.50;;;;;;;12.05;100.00;97351.94;5113398;28;20231;-61
2022/11/02 01:53:34;;;;;;;7.30;3.80;;;;;;;12.07;100.00;97357.97;5086875;28;20232;-59
2022/11/02 01:56:01;;;;;;;5.47;3.37;;;;;;;12.06;100.00;97353.63;5084214;28;20234;-60
2022/11/02 01:58:28;;;;;;;7.63;3.30;;;;;;;12.08;100.00;97349.06;5084063;28;20293;-60
2022/11/02 02:00:56;;;;;;;7.30;3.80;;;;;;;12.08;100.00;97355.19;5083961;28;20217;-59
2022/11/02 02:03:23;;;;;;;6.13;3.60;;;;;;;12.11;100.00;97346.13;5083559;28;20640;-60
2022/11/02 02:05:55;;;;;;;4.40;3.77;;;;;;;12.12;100.00;97345.13;5083466;28;21420;-61
2022/11/02 02:08:24;;;;;;;5.63;3.80;;;;;;;12.15;100.00;97347.53;5083301;28;20245;-59
2022/11/02 02:10:50;;;;;;;5.47;3.47;;;;;;;12.18;100.00;97344.63;5083850;28;20237;-59
2022/11/02 02:13:17;;;;;;;4.47;3.40;;;;;;;12.21;100.00;97349.66;5083582;28;20206;-61
2022/11/02 02:15:50;;;;;;;6.10;3.70;;;;;;;12.24;100.00;97349.38;5083255;28;20230;-59
2022/11/02 02:18:24;;;;;;;4.23;3.50;;;;;;;12.22;100.00;97340.72;5083521;28;20238;-60
2022/11/02 02:21:10;;;;;;;6.73;3.80;;;;;;;12.23;100.00;97335.28;5083289;28;20650;-60
2022/11/02 02:24:16;;;;;;;6.47;3.80;;;;;;;12.23;100.00;97345.88;5083785;28;20225;-59
2022/11/02 02:27:04;;;;;;;4.00;3.70;;;;;;;12.26;100.00;97350.06;5083752;28;20229;-60
2022/11/02 02:29:40;;;;;;;7.00;4.13;;;;;;;12.24;100.00;97341.41;5083530;28;20205;-60
2022/11/02 02:32:13;;;;;;;4.60;3.60;;;;;;;12.26;100.00;97339.44;5083183;28;20232;-59
2022/11/02 02:34:49;;;;;;;5.27;3.70;;;;;;;12.27;100.00;97326.06;5083209;28;20279;-59
2022/11/02 02:37:18;;;;;;;5.93;3.63;;;;;;;12.29;100.00;97337.38;5083180;28;20255;-59
2022/11/02 02:39:51;;;;;;;5.43;3.80;;;;;;;12.31;100.00;97334.59;5083443;28;20253;-59
2022/11/02 02:42:21;;;;;;;5.17;3.70;;;;;;;12.31;100.00;97338.09;5082807;28;20698;-59
2022/11/02 02:44:54;;;;;;;4.30;3.90;;;;;;;12.28;100.00;97332.22;5083596;28;20194;-59
2022/11/02 02:47:23;;;;;;;4.30;3.73;;;;;;;12.31;100.00;97334.59;5083414;28;20577;-60
2022/11/02 02:49:52;;;;;;;7.10;4.00;;;;;;;12.31;100.00;97327.47;5083032;28;20317;-61
2022/11/02 02:52:20;;;;;;;4.33;3.83;;;;;;;12.32;100.00;97321.22;5082411;28;20642;-61
2022/11/02 02:54:47;;;;;;;6.53;3.90;;;;;;;12.32;100.00;97321.22;5083441;28;20199;-60
2022/11/02 02:57:17;;;;;;;4.43;3.80;;;;;;;12.32;100.00;97320.38;5083017;28;20626;-60
2022/11/02 02:59:45;;;;;;;7.20;4.33;;;;;;;12.31;100.00;97319.53;5083163;28;20240;-60
2022/11/02 03:02:16;;;;;;;4.73;3.70;;;;;;;12.34;100.00;97318.41;5088656;28;20207;-59
2022/11/02 03:04:43;;;;;;;4.67;3.60;;;;;;;12.34;100.00;97323.69;5093199;28;20302;-60
2022/11/02 03:07:12;;;;;;;5.17;3.60;;;;;;;12.35;100.00;97314.78;5092988;28;20209;-60
2022/11/02 03:09:41;;;;;;;4.43;3.60;;;;;;;12.34;100.00;97321.03;5085124;28;20301;-61
2022/11/02 03:12:17;;;;;;;5.27;3.73;;;;;;;12.34;100.00;97324.53;5082576;28;20245;-59
2022/11/02 03:14:51;;;;;;;6.37;3.87;;;;;;;12.39;100.00;97316.19;5081880;28;20706;-59
2022/11/02 03:17:22;;;;;;;7.20;4.00;;;;;;;12.37;100.00;97323.41;5083047;28;20258;-59
2022/11/02 03:19:53;;;;;;;4.30;3.90;;;;;;;12.39;100.00;97321.50;5082826;28;20234;-59
2022/11/02 03:22:27;;;;;;;4.57;3.70;;;;;;;12.41;100.00;97328.31;5082782;28;20225;-60
2022/11/02 03:24:59;;;;;;;4.07;3.53;;;;;;;12.41;100.00;97320.38;5082645;28;20193;-59
2022/11/02 03:27:34;;;;;;;5.07;3.77;;;;;;;12.44;100.00;97324.53;5082642;28;20202;-59
2022/11/02 03:30:05;;;;;;;4.03;3.40;;;;;;;12.43;100.00;97317.59;5082528;28;20213;-60
2022/11/02 03:32:38;;;;;;;5.13;3.30;;;;;;;12.47;100.00;97324.25;5082239;28;20592;-59
2022/11/02 03:35:08;;;;;;;3.93;3.23;;;;;;;12.48;100.00;97318.00;5081668;28;20229;-59
2022/11/02 03:37:37;;;;;;;6.97;3.70;;;;;;;12.48;100.00;97320.66;5082266;28;20201;-60
2022/11/02 03:40:09;;;;;;;5.13;3.50;;;;;;;12.53;100.00;97317.59;5081943;28;20693;-60
2022/11/02 03:42:36;;;;;;;4.43;3.57;;;;;;;12.53;100.00;97317.59;5082111;28;20263;-59
2022/11/02 03:45:07;;;;;;;8.30;3.77;;;;;;;12.51;100.00;97320.38;5083029;28;20646;-60
2022/11/02 03:47:36;;;;;;;3.33;3.00;;;;;;;12.50;100.00;97321.38;5082979;28;20244;-60
2022/11/02 03:50:04;;;;;;;3.70;2.97;;;;;;;12.53;100.00;97318.44;5081917;28;20610;-60
2022/11/02 03:52:32;;;;;;;3.00;2.80;;;;;;;12.52;100.00;97327.34;5087412;28;20206;-61
2022/11/02 03:55:03;;;;;;;6.93;2.50;;;;;;;12.52;100.00;97321.22;5105251;28;20229;-61
2022/11/02 03:57:34;;;;;;;4.60;2.10;;;;;;;12.53;100.00;97329.03;5098650;28;20282;-60
2022/11/02 04:00:09;;;;;;;5.30;2.60;;;;;;;12.52;100.00;97332.66;5085355;28;20214;-61
2022/11/02 04:02:37;;;;;;;3.87;1.90;;;;;;;12.59;100.00;97327.63;5104892;28;20197;-61
2022/11/02 04:05:05;;;;;;;2.13;1.97;;;;;;;12.55;100.00;97335.03;5106524;28;20218;-60
2022/11/02 04:08:19;;;;;;;4.17;2.23;;;;;;;12.54;100.00;97332.53;5089449;28;20238;-59
2022/11/02 04:10:21;;;;;;;2.83;2.17;;;;;;;12.55;100.00;97337.69;5081343;28;20201;-60
2022/11/02 04:15:31;;;;;;;2.93;2.63;;;;;;;12.57;100.00;97334.91;5081477;28;20201;-60
2022/11/02 04:20:43;;;;;;;6.90;3.07;;;;;;;12.61;100.00;97341.63;5087590;28;20224;-61
2022/11/02 04:25:54;;;;;;;6.83;4.07;;;;;;;12.60;100.00;97338.13;5091644;28;20197;-59
2022/11/02 04:28:21;;;;;;;6.97;3.63;;;;;;;12.63;100.00;97343.16;5085441;28;20336;-59
2022/11/02 04:30:48;;;;;;;3.97;3.57;;;;;;;12.68;100.00;97340.91;5081393;28;20222;-59
2022/11/02 04:33:34;;;;;;;4.73;3.17;;;;;;;12.64;100.00;97336.88;5081384;28;20229;-60
2022/11/02 04:36:01;;;;;;;3.83;2.83;;;;;;;12.64;100.00;97347.50;5081350;28;20198;-59
2022/11/02 04:38:39;;;;;;;4.10;2.97;;;;;;;12.66;100.00;97357.94;5081325;28;20217;-59
2022/11/02 04:43:50;;;;;;;6.40;2.97;;;;;;;12.63;100.00;97369.69;5081338;28;20205;-61
2022/11/02 04:46:17;;;;;;;2.67;2.27;;;;;;;12.63;100.00;97361.72;5081073;28;20206;-59
2022/11/02 04:48:45;;;;;;;3.57;2.40;;;;;;;12.62;100.00;97369.81;5081428;28;20317;-59
2022/11/02 04:51:12;;;;;;;5.80;2.63;;;;;;;12.59;100.00;97378.91;5081264;28;20229;-60
2022/11/02 04:53:38;;;;;;;5.00;2.73;;;;;;;12.60;100.00;97377.94;5081196;28;20233;-60
2022/11/02 04:56:06;;;;;;;5.10;2.80;;;;;;;12.63;100.00;97376.81;5081040;28;20280;-60
2022/11/02 04:58:33;;;;;;;4.97;3.20;;;;;;;12.60;100.00;97372.63;5063607;28;20221;-60
2022/11/02 05:01:04;;;;;;;5.67;2.43;;;;;;;12.63;100.00;97372.34;5081087;28;20219;-59
2022/11/02 05:03:31;;;;;;;5.00;2.57;;;;;;;12.60;100.00;97375.28;5081854;28;20258;-59
2022/11/02 05:05:59;;;;;;;3.53;2.57;;;;;;;12.61;100.00;97368.16;5081675;28;20611;-58
2022/11/02 05:08:26;;;;;;;6.07;2.80;;;;;;;12.59;100.00;97375.41;5080639;28;20648;-60
2022/11/02 05:10:54;;;;;;;3.43;2.60;;;;;;;12.57;100.00;97375.56;5080879;28;20213;-59
2022/11/02 05:13:21;;;;;;;4.97;2.27;;;;;;;12.55;100.00;97374.84;5081548;28;20202;-59
2022/11/02 05:15:47;;;;;;;5.00;2.43;;;;;;;12.54;100.00;97377.66;5080664;28;20285;-60
2022/11/02 05:18:14;;;;;;;4.13;2.23;;;;;;;12.56;100.00;97376.53;5080857;28;20281;-60
2022/11/02 05:20:41;;;;;;;4.97;2.60;;;;;;;12.55;100.00;97388.09;5080251;28;20229;-60
2022/11/02 05:23:09;;;;;;;5.80;2.40;;;;;;;12.52;100.00;97383.06;5080351;28;20288;-59
2022/11/02 05:25:36;;;;;;;3.47;2.40;;;;;;;12.54;100.00;97391.72;5082952;28;20297;-59
2022/11/02 05:28:03;;;;;;;5.20;3.03;;;;;;;12.55;100.00;97390.75;5087636;28;20223;-59
2022/11/02 05:30:29;;;;;;;4.10;3.30;;;;;;;12.56;100.00;97389.78;5089536;28;20222;-60
2022/11/02 05:32:57;;;;;;;4.03;2.93;;;;;;;12.54;100.00;97382.94;5085948;28;20206;-59
2022/11/02 05:35:24;;;;;;;4.53;3.23;;;;;;;12.55;100.00;97388.09;5081547;28;20206;-59
2022/11/02 05:37:50;;;;;;;3.90;2.47;;;;;;;12.57;100.00;97393.28;5083465;28;20298;-60
2022/11/02 05:40:19;;;;;;;4.13;2.60;;;;;;;12.52;100.00;97391.03;5084394;28;20285;-60
2022/11/02 05:42:45;;;;;;;4.00;2.83;;;;;;;12.54;100.00;97394.38;5084665;28;20245;-60
2022/11/02 05:45:12;;;;;;;3.93;3.30;;;;;;;12.51;100.00;97389.34;5084333;28;20284;-60
2022/11/02 05:47:39;;;;;;;3.23;2.70;;;;;;;12.55;100.00;97406.69;5084401;28;20245;-60
2022/11/02 05:50:06;;;;;;;3.00;2.70;;;;;;;12.55;100.00;97400.53;5084795;28;20221;-60
2022/11/02 05:52:34;;;;;;;3.23;2.67;;;;;;;12.53;100.00;97403.34;5084827;28;20579;-60
2022/11/02 05:55:01;;;;;;;5.97;3.13;;;;;;;12.55;100.00;97400.53;5085569;28;20248;-59
2022/11/02 05:57:29;;;;;;;5.23;3.00;;;;;;;12.55;100.00;97406.69;5086091;28;20195;-60
2022/11/02 05:59:56;;;;;;;7.20;3.43;;;;;;;12.57;100.00;97402.09;5085232;28;20293;-60
2022/11/02 06:02:22;;;;;;;7.80;3.30;;;;;;;12.58;100.00;97411.69;5084781;28;20226;-59
2022/11/02 06:04:49;;;;;;;3.43;3.13;;;;;;;12.57;100.00;97414.50;5085004;28;20237;-59
2022/11/02 06:07:16;;;;;;;3.47;3.13;;;;;;;12.58;100.00;97416.16;5084349;28;20260;-60
2022/11/02 06:09:42;;;;;;;5.70;3.03;;;;;;;12.58;100.00;97424.97;5084562;28;20313;-59
2022/11/02 06:12:09;;;;;;;5.00;3.20;;;;;;;12.58;100.00;97419.66;5084886;28;20244;-59
2022/11/02 06:14:37;;;;;;;4.23;3.27;;;;;;;12.56;100.00;97429.59;5084757;28;20229;-60
2022/11/02 06:17:04;;;;;;;3.33;2.90;;;;;;;12.57;100.00;97423.31;5085143;28;20646;-60
2022/11/02 06:19:30;;;;;;;6.53;3.20;;;;;;;12.57;100.00;97436.59;5086843;28;20205;-59
2022/11/02 06:21:57;;;;;;;6.43;3.20;;;;;;;12.56;100.00;97429.59;5087148;28;20232;-60
2022/11/02 06:24:24;;;;;;;3.50;3.03;;;;;;;12.62;100.00;97433.50;5085671;28;20206;-60
2022/11/02 06:26:51;;;;;;;5.90;3.00;;;;;;;12.60;100.00;97441.63;5085194;28;20260;-60
2022/11/02 06:29:17;;;;;;;3.33;3.00;;;;;;;12.60;100.00;97441.63;5085393;28;20229;-60
2022/11/02 06:31:45;;;;;;;5.70;3.30;;;;;;;12.60;100.00;97444.25;5085031;28;20296;-60
2022/11/02 06:34:12;;;;;;;5.60;3.80;;;;;;;12.62;100.00;97452.91;5084292;28;20213;-59
2022/11/02 06:36:39;;;;;;;4.67;3.30;;;;;;;12.62;100.00;97452.91;5083405;28;20206;-60
2022/11/02 06:39:05;;;;;;;4.27;3.20;;;;;;;12.61;100.00;97459.19;5083809;28;20293;-60
2022/11/02 06:41:32;;;;;;;3.60;3.20;;;;;;;12.61;100.00;97455.72;5083531;28;20251;-59
2022/11/02 06:43:59;;;;;;;6.67;4.50;;;;;;;12.60;100.00;97457.53;5083622;28;20202;-59
2022/11/02 06:46:25;;;;;;;5.60;3.77;;;;;;;12.65;100.00;97470.38;5083455;28;20301;-58
2022/11/02 06:48:53;;;;;;;5.63;4.10;;;;;;;12.64;100.00;97474.03;5081163;28;20533;-59
2022/11/02 06:51:20;;;;;;;4.07;3.77;;;;;;;12.64;100.00;97474.03;5082229;28;20249;-61
2022/11/02 06:53:47;;;;;;;4.63;3.70;;;;;;;12.63;100.00;97472.34;5082377;28;20235;-58
2022/11/02 06:56:13;;;;;;;4.17;3.77;;;;;;;12.64;100.00;97472.22;5082584;28;20298;-59
2022/11/02 06:58:40;;;;;;;7.20;4.10;;;;;;;12.65;100.00;97480.97;5082618;28;20221;-59
2022/11/02 07:01:08;;;;;;;5.70;4.20;;;;;;;12.69;100.00;97480.59;5082673;28;20314;-59
2022/11/02 07:03:35;;;;;;;5.27;3.57;;;;;;;12.72;100.00;97485.63;5082603;28;20202;-60
2022/11/02 07:06:03;;;;;;;5.63;3.97;;;;;;;12.69;100.00;97488.56;5082154;28;20563;-60
2022/11/02 07:08:30;;;;;;;6.57;4.20;;;;;;;12.70;100.00;97500.00;5082094;28;20203;-59
2022/11/02 07:10:57;;;;;;;4.10;3.80;;;;;;;12.71;100.00;97499.03;5081862;28;20258;-56
2022/11/02 07:13:24;;;;;;;4.83;3.70;;;;;;;12.74;100.00;97507.56;5081982;28;20289;-57
2022/11/02 07:15:52;;;;;;;5.07;4.10;;;;;;;12.75;100.00;97503.91;5082057;28;20627;-58
2022/11/02 07:18:18;;;;;;;5.27;4.00;;;;;;;12.80;100.00;97507.03;5082300;28;20207;-56
2022/11/02 07:20:45;;;;;;;6.90;4.83;;;;;;;12.84;100.00;97513.75;5082032;28;20241;-60
2022/11/02 07:23:13;;;;;;;11.10;5.40;;;;;;;12.85;100.00;97520.75;5082075;28;20194;-60
2022/11/02 07:25:40;;;;;;;7.47;4.47;;;;;;;12.87;100.00;97520.59;5082964;28;20205;-60
2022/11/02 07:28:07;;;;;;;6.37;4.30;;;;;;;12.89;100.00;97523.97;5084443;28;20302;-59
2022/11/02 07:30:34;;;;;;;5.47;3.93;;;;;;;12.88;100.00;97509.84;5085062;28;20245;-59
2022/11/02 07:33:01;;;;;;;6.07;4.37;;;;;;;12.89;100.00;97516.81;5084735;28;20190;-60
2022/11/02 07:35:28;;;;;;;8.73;4.60;;;;;;;12.89;100.00;97535.41;5090249;28;20198;-60
2022/11/02 07:37:56;;;;;;;5.17;4.20;;;;;;;12.91;100.00;97528.16;5094132;28;20244;-59
2022/11/02 07:40:24;;;;;;;7.20;4.33;;;;;;;12.95;100.00;97520.75;5091935;28;20716;-67
2022/11/02 07:42:52;;;;;;;7.80;4.90;;;;;;;13.01;100.00;97525.50;5092475;28;20229;-60
2022/11/02 07:45:19;;;;;;;8.80;4.90;;;;;;;13.03;100.00;97518.28;5094925;28;20208;-60
2022/11/02 07:47:47;;;;;;;6.00;4.70;;;;;;;13.12;100.00;97524.59;5093156;28;20252;-60
2022/11/02 07:50:15;;;;;;;6.57;5.00;;;;;;;13.19;100.00;97523.06;5089322;28;20217;-58
2022/11/02 07:52:46;;;;;;;5.77;4.57;;;;;;;13.27;100.00;97525.88;5088600;28;20186;-64
2022/11/02 07:55:13;;;;;;;7.00;4.83;;;;;;;13.36;100.00;97519.72;5083714;28;20565;-61
2022/11/02 07:57:42;;;;;;;6.63;5.23;;;;;;;13.40;100.00;97518.47;5084579;28;20293;-59
2022/11/02 08:00:10;;;;;;;8.77;5.73;;;;;;;13.44;100.00;97522.53;5080459;28;20201;-59
2022/11/02 08:02:36;;;;;;;8.40;6.17;;;;;;;13.52;100.00;97530.66;5086291;28;20266;-59
2022/11/02 08:05:04;;;;;;;8.30;6.63;;;;;;;13.57;100.00;97541.69;5081129;28;20221;-58
2022/11/02 08:07:30;;;;;;;7.47;5.53;;;;;;;13.62;100.00;97539.47;5081573;28;20210;-59
2022/11/02 08:09:57;;;;;;;6.90;6.07;;;;;;;13.62;100.00;97539.47;5081979;28;20298;-59
2022/11/02 08:12:24;;;;;;;8.20;5.87;;;;;;;13.60;100.00;97528.16;5081591;28;20211;-59
2022/11/02 08:14:53;;;;;;;10.37;6.10;;;;;;;13.63;100.00;97542.97;5082549;28;20206;-59
2022/11/02 08:17:20;;;;;;;7.40;5.43;;;;;;;13.63;100.00;97543.81;5081826;28;20235;-59
2022/11/02 08:19:47;;;;;;;8.20;5.47;;;;;;;13.66;100.00;97548.00;5082622;28;20290;-59
2022/11/02 08:22:14;;;;;;;6.37;5.50;;;;;;;13.67;100.00;97550.53;5082186;28;20213;-56
2022/11/02 08:24:40;;;;;;;8.20;5.63;;;;;;;13.68;100.00;97544.22;5081512;28;20206;-60
2022/11/02 08:27:07;;;;;;;8.17;5.80;;;;;;;13.71;100.00;97551.91;5081458;28;20305;-58
2022/11/02 08:29:34;;;;;;;8.13;5.20;;;;;;;13.72;100.00;97553.59;5081624;28;20337;-58
2022/11/02 08:32:02;;;;;;;10.73;5.40;;;;;;;13.75;100.00;97547.13;5080603;28;20274;-61
2022/11/02 08:34:28;;;;;;;10.23;6.00;;;;;;;13.81;100.00;97547.44;5079821;28;20294;-61
2022/11/02 08:36:55;;;;;;;8.87;7.10;;;;;;;13.87;100.00;97549.53;5080124;28;20242;-59
2022/11/02 08:39:22;;;;;;;10.73;6.20;;;;;;;13.90;100.00;97551.91;5080993;28;20292;-59
2022/11/02 08:41:48;;;;;;;8.53;6.47;;;;;;;13.89;100.00;97552.88;5080291;28;20238;-58
2022/11/02 08:44:15;;;;;;;8.93;6.10;;;;;;;13.89;100.00;97547.56;5080617;28;20206;-59
2022/11/02 08:46:42;;;;;;;9.63;5.83;;;;;;;13.89;100.00;97554.69;5079913;28;20294;-59
2022/11/02 08:49:10;;;;;;;10.00;6.37;;;;;;;13.92;100.00;97555.25;5080563;28;20630;-59
2022/11/02 08:51:36;;;;;;;7.23;5.60;;;;;;;13.96;100.00;97551.31;5080338;28;20237;-58
2022/11/02 08:54:03;;;;;;;8.10;6.10;;;;;;;14.03;100.00;97558.75;5079915;28;20294;-59
2022/11/02 08:56:30;;;;;;;7.70;5.82;;;;;;;14.08;100.00;97552.00;5080872;28;20242;-59
2022/11/02 08:58:56;;;;;;;8.43;6.20;;;;;;;14.15;100.00;97554.94;5080947;28;20601;-59
2022/11/02 09:01:23;;;;;;;10.27;6.10;;;;;;;14.15;100.00;97555.78;5078807;28;20635;-60
2022/11/02 09:03:49;;;;;;;6.45;5.10;;;;;;;14.20;100.00;97544.72;5079631;28;20249;-60
2022/11/02 09:06:17;;;;;;;5.80;5.23;;;;;;;14.23;100.00;97547.09;5080176;28;20290;-60
2022/11/02 09:08:44;;;;;;;6.53;5.47;;;;;;;14.28;100.00;97555.47;5080233;28;20972;-60
2022/11/02 09:11:11;;;;;;;9.05;5.97;;;;;;;14.34;100.00;97554.94;5080880;28;20226;-59
2022/11/02 09:13:38;;;;;;;8.13;5.53;;;;;;;14.36;100.00;97547.63;5082543;28;20206;-59
2022/11/02 09:16:05;;;;;;;7.23;5.77;;;;;;;14.45;100.00;97554.78;5084679;28;20194;-59
2022/11/02 09:18:32;;;;;;;7.30;5.47;;;;;;;14.46;100.00;97553.78;5084751;28;20229;-58
2022/11/02 09:21:02;;;;;;;8.30;5.20;;;;;;;14.45;100.00;97552.13;5084905;28;20285;-59
2022/11/02 09:23:30;;;;;;;7.40;5.63;;;;;;;14.45;100.00;97547.59;5084597;28;20268;-60
2022/11/02 09:25:58;;;;;;;8.25;5.50;;;;;;;14.51;100.00;97551.53;5085270;28;20297;-59
2022/11/02 09:28:24;;;;;;;5.65;4.53;;;;;;;14.60;100.00;97549.78;5083309;28;20206;-59
2022/11/02 09:30:51;;;;;;;5.33;4.53;;;;;;;14.62;100.00;97554.00;5083280;28;20325;-60
2022/11/02 09:33:18;;;;;;;5.18;4.68;;;;;;;14.58;100.00;97552.63;5085168;28;20255;-58
2022/11/02 09:35:48;;;;;;;5.95;4.20;;;;;;;14.58;100.00;97552.63;5083171;28;20240;-59
2022/11/02 09:38:17;;;;;;;9.25;4.32;;;;;;;14.55;100.00;97552.91;5083603;28;20288;-59
2022/11/02 09:40:46;;;;;;;6.07;3.87;;;;;;;14.51;100.00;97553.34;5083458;28;20230;-58
2022/11/02 09:43:19;;;;;;;6.00;4.10;;;;;;;14.49;100.00;97556.13;5082741;28;20252;-58
2022/11/02 09:45:53;;;;;;;6.30;3.90;;;;;;;14.44;100.00;97566.41;5083998;28;20233;-60
2022/11/02 09:48:23;;;;;;;5.80;3.50;;;;;;;14.50;100.00;97564.97;5083221;28;20197;-60
2022/11/02 09:50:54;;;;;;;5.33;3.67;;;;;;;14.45;100.00;97560.09;5083566;28;20269;-59
2022/11/02 09:53:24;;;;;;;6.63;3.47;;;;;;;14.42;100.00;97560.34;5083950;28;20294;-60
2022/11/02 09:55:54;;;;;;;7.80;3.70;;;;;;;14.44;100.00;97561.06;5086077;28;20301;-58
2022/11/02 09:58:24;;;;;;;4.93;3.77;;;;;;;14.47;100.00;97566.09;5093383;28;20209;-60
2022/11/02 10:00:56;;;;;;;4.47;3.30;;;;;;;14.52;100.00;97571.84;5104213;28;20191;-59
2022/11/02 10:03:30;;;;;;;5.72;3.83;;;;;;;14.61;100.00;97560.31;5105380;28;20183;-59
2022/11/02 10:05:59;;;;;;;8.50;3.72;;;;;;;14.66;100.00;97565.22;5105944;28;20217;-60
2022/11/02 10:08:31;;;;;;;5.65;3.15;;;;;;;14.67;99.43;97570.38;5105078;28;20218;-59
2022/11/02 10:11:12;;;;;;;4.87;3.23;;;;;;;14.70;99.03;97561.28;5095431;28;20707;-59
2022/11/02 10:13:42;;;;;;;5.68;3.20;;;;;;;14.81;99.85;97564.56;5084760;28;20249;-60
2022/11/02 10:16:13;;;;;;;3.63;3.13;;;;;;;14.94;100.00;97558.91;5083646;28;20634;-58
2022/11/02 10:18:41;;;;;;;4.28;2.92;;;;;;;15.03;99.78;97554.50;5083637;28;20277;-59
2022/11/02 10:21:11;;;;;;;8.73;3.67;;;;;;;15.09;100.00;97561.94;5083688;28;20563;-58
2022/11/02 10:23:40;;;;;;;4.20;3.25;;;;;;;15.17;100.00;97559.34;5081968;28;20541;-59
2022/11/02 10:26:13;;;;;;;6.90;3.30;;;;;;;15.14;94.93;97554.31;5082538;28;20292;-59
2022/11/02 10:28:42;;;;;;;6.70;3.40;;;;;;;15.14;98.01;97559.63;5084566;28;20267;-59
2022/11/02 10:31:20;;;;;;;5.97;3.50;;;;;;;15.15;97.23;97548.00;5083230;28;20534;-60
2022/11/02 10:33:46;;;;;;;5.85;2.72;;;;;;;15.14;97.50;97551.66;5083607;28;20573;-59
2022/11/02 10:36:21;;;;;;;3.75;2.78;;;;;;;15.19;96.99;97549.38;5082757;28;20803;-59
2022/11/02 10:38:59;;;;;;;6.05;2.83;;;;;;;15.23;96.93;97546.25;5082993;28;20288;-59
2022/11/02 10:41:47;;;;;;;4.85;2.97;;;;;;;15.28;92.27;97540.47;5082032;28;20293;-59
2022/11/02 10:44:28;;;;;;;6.38;3.28;;;;;;;15.26;94.77;97537.13;5082598;28;20195;-60
2022/11/02 10:47:04;;;;;;;7.57;2.70;;;;;;;15.26;91.47;97535.31;5081982;28;20229;-60
2022/11/02 10:49:49;;;;;;;4.65;2.53;;;;;;;15.32;93.01;97526.72;5082155;28;20186;-60
2022/11/02 10:52:17;;;;;;;4.28;2.22;;;;;;;15.27;91.55;97525.47;5082271;28;20324;-59
2022/11/02 10:54:43;;;;;;;5.18;2.47;;;;;;;15.27;90.79;97522.81;5082676;28;20703;-60
2022/11/02 10:57:13;;;;;;;5.32;2.60;;;;;;;15.24;91.00;97526.63;5082587;28;20638;-60
2022/11/02 10:59:40;;;;;;;6.40;2.75;;;;;;;15.22;89.04;97527.75;5082116;28;20236;-59
2022/11/02 11:02:12;;;;;;;4.67;2.73;;;;;;;15.17;88.57;97519.38;5082188;28;20650;-59
2022/11/02 11:04:39;;;;;;;5.15;2.50;;;;;;;15.21;88.96;97512.75;5083270;28;20197;-60
2022/11/02 11:07:08;;;;;;;7.80;2.72;;;;;;;15.20;89.33;97509.25;5083602;28;20240;-58
2022/11/02 11:09:38;;;;;;;5.18;2.35;;;;;;;15.21;90.61;97504.75;5082818;28;20209;-58
2022/11/02 11:12:07;;;;;;;4.18;2.25;;;;;;;15.22;88.28;97509.94;5083019;28;20302;-58
2022/11/02 11:14:44;;;;;;;2.83;2.15;;;;;;;15.26;87.88;97502.50;5082283;28;20230;-61
2022/11/02 11:17:15;;;;;;;6.65;2.28;;;;;;;15.28;86.83;97492.50;5082351;28;20285;-58
2022/11/02 11:19:47;;;;;;;4.30;2.10;;;;;;;15.31;85.48;97481.53;5082681;28;20246;-59
2022/11/02 11:22:26;;;;;;;6.07;2.33;;;;;;;15.35;85.64;97477.59;5083053;28;20221;-60
2022/11/02 11:24:53;;;;;;;7.20;2.75;;;;;;;15.35;85.69;97475.75;5104046;28;20198;-61
2022/11/02 11:27:20;;;;;;;5.03;2.40;;;;;;;15.37;85.01;97470.28;5086283;28;20203;-61
2022/11/02 11:29:53;;;;;;;5.30;2.80;;;;;;;15.37;83.69;97470.28;5082719;28;20301;-60
2022/11/02 11:32:22;;;;;;;3.92;2.42;;;;;;;15.46;83.59;97469.38;5103137;28;20213;-60
2022/11/02 11:34:58;;;;;;;4.65;2.20;;;;;;;15.57;84.04;97471.84;5105883;28;20194;-63
2022/11/02 11:37:25;;;;;;;3.55;2.15;;;;;;;15.63;83.85;97463.22;5096607;28;20205;-60
2022/11/02 11:39:55;;;;;;;5.85;2.50;;;;;;;15.59;83.01;97459.16;5082137;28;20289;-60
2022/11/02 11:42:23;;;;;;;5.20;2.35;;;;;;;15.62;83.42;97450.88;5081976;28;20230;-59
2022/11/02 11:44:56;;;;;;;5.47;3.35;;;;;;;15.63;84.77;97449.03;5081938;28;20198;-59